Time;durP1;ratioP1;P1;durP2;ratioP2;P2;SDS_P1;SDS_P2;PMS_P1;PMS_P2;Temp;Humidity;BMP_temperature;BMP_pressure;BME280_temperature;BME280_humidity;BME280_pressure;Samples;Min_cycle;Max_cycle;Signal;HPM_P1;HPM_P2
2021/03/02 00:01:11;;;;;;;2.40;1.70;;;9.50;79.60;;;;;;5015230;28;20269;-79
2021/03/02 00:03:38;;;;;;;2.33;1.65;;;9.40;79.60;;;;;;5033058;28;20202;-78
2021/03/02 00:06:05;;;;;;;1.60;1.50;;;9.40;80.00;;;;;;5033297;28;20537;-79
2021/03/02 00:08:31;;;;;;;2.25;1.80;;;9.40;80.00;;;;;;5034492;28;20257;-79
2021/03/02 00:11:00;;;;;;;2.92;1.75;;;9.40;80.10;;;;;;5037346;28;20196;-79
2021/03/02 00:13:28;;;;;;;2.55;1.70;;;9.40;80.60;;;;;;5033326;28;20304;-79
2021/03/02 00:15:56;;;;;;;2.97;2.10;;;9.50;80.70;;;;;;5032823;28;20245;-79
2021/03/02 00:18:26;;;;;;;2.35;1.88;;;9.40;82.00;;;;;;5031279;28;20244;-80
2021/03/02 00:23:28;;;;;;;2.58;2.20;;;9.40;82.20;;;;;;5008848;28;20696;-78
2021/03/02 00:25:57;;;;;;;2.70;1.50;;;9.40;81.60;;;;;;5028146;28;20170;-78
2021/03/02 00:28:26;;;;;;;1.85;1.45;;;9.40;81.60;;;;;;5027821;28;20178;-79
2021/03/02 00:30:53;;;;;;;2.40;2.03;;;9.40;81.70;;;;;;5012052;28;20233;-78
2021/03/02 00:33:28;;;;;;;2.97;1.70;;;9.40;81.70;;;;;;4987371;28;20209;-79
2021/03/02 00:35:53;;;;;;;2.15;1.83;;;9.40;82.30;;;;;;5003736;28;20634;-79
2021/03/02 00:38:19;;;;;;;2.60;1.53;;;9.40;82.00;;;;;;4981550;28;20234;-78
2021/03/02 00:40:45;;;;;;;2.70;1.80;;;9.40;82.20;;;;;;4992246;28;20527;-79
2021/03/02 00:43:10;;;;;;;2.33;1.80;;;9.40;82.20;;;;;;4994793;28;20191;-79
2021/03/02 00:45:36;;;;;;;3.00;1.70;;;9.40;82.60;;;;;;4993741;28;20163;-79
2021/03/02 00:48:02;;;;;;;1.77;1.60;;;9.40;82.70;;;;;;4976305;28;20669;-79
2021/03/02 00:50:29;;;;;;;3.65;1.60;;;9.40;82.60;;;;;;4981175;28;20281;-79
2021/03/02 00:52:56;;;;;;;2.67;1.88;;;9.40;82.70;;;;;;4995476;28;20241;-79
2021/03/02 00:55:24;;;;;;;3.30;1.80;;;9.40;83.20;;;;;;4995167;28;20197;-79
2021/03/02 00:57:53;;;;;;;2.53;2.00;;;9.30;82.90;;;;;;4995287;28;20269;-79
2021/03/02 01:00:25;;;;;;;2.45;1.23;;;9.30;82.90;;;;;;4979355;28;20175;-79
2021/03/02 01:02:53;;;;;;;2.60;1.80;;;9.30;83.30;;;;;;4995441;28;20190;-78
2021/03/02 01:05:19;;;;;;;1.80;1.63;;;9.30;83.80;;;;;;5011384;28;20233;-79
2021/03/02 01:07:45;;;;;;;2.50;2.25;;;9.30;85.70;;;;;;4994811;28;20662;-78
2021/03/02 01:10:19;;;;;;;2.70;1.98;;;9.30;85.30;;;;;;5010739;28;20173;-79
2021/03/02 01:12:50;;;;;;;2.58;1.73;;;9.30;84.60;;;;;;4979736;28;20239;-79
2021/03/02 01:15:17;;;;;;;3.20;2.53;;;9.40;84.80;;;;;;5000587;28;20181;-79
2021/03/02 01:17:43;;;;;;;3.30;2.30;;;9.40;85.90;;;;;;4995010;28;20236;-79
2021/03/02 01:20:12;;;;;;;2.97;2.13;;;9.40;85.70;;;;;;4994570;28;20174;-78
2021/03/02 01:22:38;;;;;;;2.65;1.90;;;9.40;85.80;;;;;;4991215;28;20218;-79
2021/03/02 01:25:12;;;;;;;2.35;2.05;;;9.40;85.50;;;;;;5010629;28;20174;-79
2021/03/02 01:27:38;;;;;;;3.38;2.45;;;9.50;87.10;;;;;;5008748;28;20170;-78
2021/03/02 01:30:06;;;;;;;2.63;2.13;;;9.50;87.40;;;;;;4975854;28;20712;-79
2021/03/02 01:32:32;;;;;;;2.63;2.25;;;9.50;88.30;;;;;;4995474;28;20201;-78
2021/03/02 01:34:57;;;;;;;3.50;2.40;;;9.50;87.00;;;;;;5010562;28;20166;-77
2021/03/02 01:37:23;;;;;;;2.70;2.00;;;9.50;88.60;;;;;;4992403;28;20608;-78
2021/03/02 01:39:49;;;;;;;2.33;2.13;;;9.50;88.20;;;;;;4974527;28;20175;-78
2021/03/02 01:42:15;;;;;;;2.53;1.80;;;9.50;88.00;;;;;;4975243;28;20260;-79
2021/03/02 01:44:41;;;;;;;3.53;2.40;;;9.50;87.90;;;;;;4990990;28;21172;-78
2021/03/02 01:47:06;;;;;;;3.63;2.07;;;9.50;88.50;;;;;;4991252;28;20182;-79
2021/03/02 01:49:32;;;;;;;2.10;1.90;;;9.50;88.10;;;;;;4990763;28;20278;-78
2021/03/02 01:51:58;;;;;;;2.63;2.20;;;9.50;88.30;;;;;;4989172;28;20648;-79
2021/03/02 01:54:24;;;;;;;3.50;2.67;;;9.50;88.90;;;;;;5012357;28;20605;-79
2021/03/02 01:56:50;;;;;;;3.10;2.57;;;9.50;88.70;;;;;;4994926;28;20577;-79
2021/03/02 01:59:18;;;;;;;2.57;2.20;;;9.50;88.50;;;;;;4989670;28;20574;-79
2021/03/02 02:01:44;;;;;;;3.25;2.55;;;9.40;88.90;;;;;;4992623;28;20187;-78
2021/03/02 02:04:19;;;;;;;4.27;2.90;;;9.40;88.90;;;;;;4992188;28;20189;-78
2021/03/02 02:06:58;;;;;;;3.35;2.70;;;9.40;88.80;;;;;;4991278;28;20561;-79
2021/03/02 02:09:45;;;;;;;3.35;2.70;;;9.40;89.90;;;;;;4974422;28;20213;-79
2021/03/02 02:12:33;;;;;;;3.25;2.55;;;9.40;89.60;;;;;;4991334;28;20260;-79
2021/03/02 02:15:06;;;;;;;3.03;2.78;;;9.30;90.00;;;;;;4991982;28;20258;-78
2021/03/02 02:18:01;;;;;;;4.18;3.60;;;9.30;88.90;;;;;;4992918;28;20167;-78
2021/03/02 02:20:41;;;;;;;3.65;3.13;;;9.30;89.70;;;;;;4991012;28;20203;-79
2021/03/02 02:23:09;;;;;;;3.25;2.95;;;9.30;89.80;;;;;;4992635;28;20213;-79
2021/03/02 02:26:00;;;;;;;4.10;3.35;;;9.30;90.00;;;;;;4992211;28;20641;-78
2021/03/02 02:28:31;;;;;;;2.53;2.25;;;9.20;90.60;;;;;;4992483;28;20238;-77
2021/03/02 02:30:58;;;;;;;3.78;3.20;;;9.20;90.40;;;;;;4995938;28;20623;-78
2021/03/02 02:33:30;;;;;;;3.45;3.00;;;9.20;90.50;;;;;;4992289;28;20176;-78
2021/03/02 02:35:57;;;;;;;2.70;2.50;;;9.20;90.20;;;;;;4995298;28;20151;-78
2021/03/02 02:38:23;;;;;;;3.22;2.70;;;9.20;90.80;;;;;;4978046;28;20183;-80
2021/03/02 02:40:49;;;;;;;3.93;2.93;;;9.10;90.20;;;;;;4977850;28;20269;-79
2021/03/02 02:43:17;;;;;;;3.60;2.93;;;9.10;90.80;;;;;;4978797;28;20577;-78
2021/03/02 02:45:44;;;;;;;5.07;3.03;;;9.00;91.50;;;;;;4995691;28;20921;-79
2021/03/02 02:48:11;;;;;;;3.08;2.78;;;9.00;92.00;;;;;;5003799;28;20217;-79
2021/03/02 02:50:38;;;;;;;3.58;3.08;;;9.00;91.40;;;;;;5006860;28;20167;-79
2021/03/02 02:53:04;;;;;;;2.85;2.38;;;9.00;91.80;;;;;;4995629;28;20238;-79
2021/03/02 02:55:36;;;;;;;3.17;2.72;;;9.00;91.40;;;;;;4995141;28;20222;-79
2021/03/02 02:58:04;;;;;;;3.40;2.88;;;8.90;91.40;;;;;;4978248;28;20270;-80
2021/03/02 03:00:32;;;;;;;3.58;2.75;;;8.90;91.30;;;;;;4995127;28;20570;-79
2021/03/02 03:03:01;;;;;;;3.72;2.50;;;8.90;92.20;;;;;;4995367;28;20222;-78
2021/03/02 03:05:30;;;;;;;2.78;2.58;;;8.90;91.80;;;;;;4995398;28;20167;-79
2021/03/02 03:08:03;;;;;;;3.97;2.63;;;8.80;92.10;;;;;;4999952;28;20228;-80
2021/03/02 03:10:30;;;;;;;3.05;2.75;;;8.80;91.60;;;;;;4977502;28;20199;-81
2021/03/02 03:13:02;;;;;;;3.10;2.20;;;8.80;91.60;;;;;;4993569;28;20249;-79
2021/03/02 03:15:29;;;;;;;3.72;2.33;;;8.80;91.70;;;;;;4993606;28;20628;-78
2021/03/02 03:17:57;;;;;;;2.65;2.33;;;8.70;91.60;;;;;;4960771;28;20239;-78
2021/03/02 03:20:23;;;;;;;3.85;2.47;;;8.70;91.80;;;;;;4994770;28;20167;-79
2021/03/02 03:22:50;;;;;;;2.72;2.22;;;8.70;91.90;;;;;;4993277;28;20210;-78
2021/03/02 03:25:16;;;;;;;4.03;3.20;;;8.70;91.90;;;;;;4994716;28;20174;-78
2021/03/02 03:27:48;;;;;;;3.20;2.45;;;8.60;93.10;;;;;;4993155;28;20167;-79
2021/03/02 03:30:15;;;;;;;3.28;2.90;;;8.60;92.70;;;;;;4994386;28;20643;-79
2021/03/02 03:32:47;;;;;;;3.25;2.83;;;8.50;93.40;;;;;;4993167;28;20283;-80
2021/03/02 03:35:14;;;;;;;3.58;3.05;;;8.50;93.00;;;;;;4994638;28;20163;-78
2021/03/02 03:37:40;;;;;;;2.58;2.35;;;8.50;92.60;;;;;;4994145;28;20194;-78
2021/03/02 03:40:06;;;;;;;3.35;2.78;;;8.50;92.80;;;;;;4993079;28;20171;-79
2021/03/02 03:42:32;;;;;;;3.95;2.80;;;8.40;93.20;;;;;;4992948;28;20601;-79
2021/03/02 03:44:57;;;;;;;2.77;2.50;;;8.40;92.80;;;;;;4998216;28;20167;-79
2021/03/02 03:47:23;;;;;;;3.80;2.93;;;8.40;92.80;;;;;;4992215;28;20270;-78
2021/03/02 03:49:49;;;;;;;3.17;2.77;;;8.30;92.90;;;;;;4993836;28;20690;-79
2021/03/02 03:52:17;;;;;;;3.83;3.53;;;8.30;93.00;;;;;;4992914;28;20956;-79
2021/03/02 03:54:45;;;;;;;3.33;2.72;;;8.20;94.20;;;;;;4976888;28;20175;-79
2021/03/02 03:57:12;;;;;;;6.18;3.25;;;8.20;94.40;;;;;;4992894;28;20578;-79
2021/03/02 03:59:42;;;;;;;3.95;3.15;;;8.20;94.30;;;;;;4976257;28;20210;-78
2021/03/02 04:02:09;;;;;;;3.50;2.75;;;8.10;95.10;;;;;;4993777;28;20237;-78
2021/03/02 04:04:37;;;;;;;4.10;3.38;;;8.10;94.90;;;;;;4993924;28;20202;-79
2021/03/02 04:07:04;;;;;;;4.00;3.20;;;8.10;95.00;;;;;;4992611;28;20182;-79
2021/03/02 04:09:32;;;;;;;3.78;2.80;;;8.10;95.60;;;;;;4993491;28;20198;-79
2021/03/02 04:11:58;;;;;;;3.53;2.88;;;8.10;95.30;;;;;;4976213;28;20666;-78
2021/03/02 04:14:24;;;;;;;4.80;3.15;;;8.10;95.20;;;;;;4992533;28;20258;-79
2021/03/02 04:16:50;;;;;;;2.93;2.70;;;8.10;95.10;;;;;;4992532;28;20250;-78
2021/03/02 04:19:16;;;;;;;4.20;3.10;;;8.10;94.90;;;;;;4992367;28;20171;-78
2021/03/02 04:21:42;;;;;;;3.40;3.03;;;8.10;95.10;;;;;;4998261;28;20700;-80
2021/03/02 04:24:08;;;;;;;4.20;3.07;;;8.10;95.70;;;;;;4993970;28;20175;-78
2021/03/02 04:26:34;;;;;;;4.88;2.90;;;8.10;95.50;;;;;;4994010;28;20567;-79
2021/03/02 04:28:59;;;;;;;2.77;2.50;;;8.10;95.50;;;;;;4992027;28;20203;-79
2021/03/02 04:31:25;;;;;;;3.10;2.53;;;8.10;95.30;;;;;;4993569;28;20183;-80
2021/03/02 04:33:51;;;;;;;2.87;2.60;;;8.10;95.30;;;;;;4993722;28;20163;-79
2021/03/02 04:36:17;;;;;;;6.10;3.63;;;8.10;95.20;;;;;;4993748;28;20168;-79
2021/03/02 04:38:42;;;;;;;3.70;3.27;;;8.10;95.30;;;;;;4993264;28;20210;-78
2021/03/02 04:41:08;;;;;;;3.20;2.90;;;8.10;95.30;;;;;;4993800;28;20594;-78
2021/03/02 04:43:34;;;;;;;3.47;2.90;;;8.10;95.40;;;;;;4993164;28;20175;-79
2021/03/02 04:46:00;;;;;;;3.27;2.00;;;8.10;95.30;;;;;;4992039;28;20717;-78
2021/03/02 04:48:26;;;;;;;4.47;3.30;;;8.10;95.90;;;;;;4975212;28;20241;-79
2021/03/02 04:50:52;;;;;;;4.93;3.40;;;8.00;95.70;;;;;;4993130;28;20609;-79
2021/03/02 04:53:18;;;;;;;3.57;2.57;;;8.00;95.70;;;;;;4993003;28;20167;-79
2021/03/02 04:55:44;;;;;;;3.00;2.50;;;8.00;95.60;;;;;;4993283;28;20163;-79
2021/03/02 04:58:09;;;;;;;5.10;3.03;;;8.00;95.90;;;;;;4980307;28;20601;-78
2021/03/02 05:00:35;;;;;;;3.90;3.10;;;8.00;96.60;;;;;;4993350;28;20167;-79
2021/03/02 05:03:01;;;;;;;4.30;2.93;;;8.00;96.60;;;;;;4993641;28;20602;-78
2021/03/02 05:05:27;;;;;;;5.33;3.47;;;8.00;96.90;;;;;;4994331;28;20574;-78
2021/03/02 05:07:53;;;;;;;4.03;3.03;;;8.00;97.00;;;;;;4991365;28;20586;-78
2021/03/02 05:10:22;;;;;;;4.68;3.53;;;8.00;97.20;;;;;;4991619;28;20259;-78
2021/03/02 05:12:48;;;;;;;4.77;3.70;;;8.00;97.20;;;;;;4992701;28;20270;-78
2021/03/02 05:15:14;;;;;;;4.28;3.83;;;8.00;97.60;;;;;;4975132;28;20931;-79
2021/03/02 05:17:41;;;;;;;5.07;4.13;;;8.00;97.90;;;;;;4992684;28;20167;-78
2021/03/02 05:20:08;;;;;;;4.43;3.50;;;7.90;98.50;;;;;;4992333;28;20178;-78
2021/03/02 05:22:33;;;;;;;5.40;3.90;;;7.90;98.40;;;;;;4991355;28;20203;-78
2021/03/02 05:24:59;;;;;;;3.27;2.97;;;7.90;98.20;;;;;;4991342;28;20194;-78
2021/03/02 05:27:25;;;;;;;5.18;4.35;;;7.90;97.90;;;;;;4975007;28;20171;-78
2021/03/02 05:29:51;;;;;;;6.40;4.60;;;7.90;99.00;;;;;;4992129;28;20206;-79
2021/03/02 05:32:17;;;;;;;5.07;4.00;;;7.90;99.50;;;;;;4991465;28;20625;-79
2021/03/02 05:34:42;;;;;;;5.03;3.83;;;7.90;98.90;;;;;;4993226;28;20163;-77
2021/03/02 05:37:08;;;;;;;6.30;4.20;;;7.80;99.10;;;;;;4995707;28;20167;-79
2021/03/02 05:39:34;;;;;;;3.20;2.70;;;7.80;98.80;;;;;;4974734;28;20663;-79
2021/03/02 05:42:00;;;;;;;4.30;3.77;;;7.80;98.80;;;;;;4991032;28;20215;-78
2021/03/02 05:44:27;;;;;;;4.72;3.25;;;7.80;99.20;;;;;;4991134;28;20295;-79
2021/03/02 05:46:53;;;;;;;5.10;3.85;;;7.80;98.60;;;;;;4991030;28;20171;-79
2021/03/02 05:49:19;;;;;;;4.05;3.15;;;7.80;98.70;;;;;;4991768;28;20191;-79
2021/03/02 05:51:45;;;;;;;5.53;3.77;;;7.80;98.40;;;;;;4974826;28;20202;-79
2021/03/02 05:54:12;;;;;;;5.20;3.90;;;7.80;98.60;;;;;;4991091;28;20175;-78
2021/03/02 05:56:39;;;;;;;7.05;3.53;;;7.80;99.20;;;;;;4975131;28;20159;-78
2021/03/02 05:59:05;;;;;;;4.40;3.85;;;7.70;98.90;;;;;;4990462;28;20534;-78
2021/03/02 06:01:31;;;;;;;5.17;4.50;;;7.70;98.50;;;;;;4991178;28;20266;-79
2021/03/02 06:03:57;;;;;;;4.17;3.57;;;7.70;99.00;;;;;;4974709;28;20609;-80
2021/03/02 06:06:23;;;;;;;4.80;3.55;;;7.70;99.00;;;;;;4990939;28;20586;-78
2021/03/02 06:08:49;;;;;;;4.97;3.37;;;7.70;99.10;;;;;;4991015;28;20199;-77
2021/03/02 06:11:29;;;;;;;5.50;3.83;;;7.60;99.00;;;;;;4996192;28;20693;-79
2021/03/02 06:13:56;;;;;;;5.15;3.70;;;7.60;99.90;;;;;;5000709;28;20198;-78
2021/03/02 06:16:22;;;;;;;4.75;4.35;;;7.60;99.40;;;;;;4978629;28;20266;-79
2021/03/02 06:18:53;;;;;;;3.85;3.45;;;7.60;99.90;;;;;;4995576;28;20166;-79
2021/03/02 06:21:20;;;;;;;7.35;4.57;;;7.60;99.50;;;;;;4978458;28;20225;-80
2021/03/02 06:23:47;;;;;;;4.28;3.78;;;7.60;99.80;;;;;;4996119;28;20574;-83
2021/03/02 06:26:13;;;;;;;5.65;5.07;;;7.70;99.30;;;;;;4996575;28;20171;-84
2021/03/02 06:28:41;;;;;;;4.20;3.80;;;7.60;99.90;;;;;;4978670;28;20343;-84
2021/03/02 06:31:08;;;;;;;4.43;4.03;;;7.60;99.90;;;;;;4962518;28;20538;-83
2021/03/02 06:33:34;;;;;;;5.95;3.50;;;7.60;99.90;;;;;;4996138;28;20174;-85
2021/03/02 06:36:00;;;;;;;4.82;4.03;;;7.60;99.90;;;;;;4994953;28;20648;-83
2021/03/02 06:38:32;;;;;;;5.35;4.30;;;7.60;99.90;;;;;;4997457;28;20572;-84
2021/03/02 06:41:00;;;;;;;4.93;3.63;;;7.60;99.90;;;;;;4996742;28;20191;-83
2021/03/02 06:43:35;;;;;;;5.70;3.63;;;7.60;99.90;;;;;;5005860;28;20277;-82
2021/03/02 06:46:08;;;;;;;4.88;3.28;;;7.60;99.90;;;;;;5006221;28;20238;-84
2021/03/02 06:48:56;;;;;;;4.97;4.05;;;7.70;99.90;;;;;;5006553;28;20204;-84
2021/03/02 06:51:25;;;;;;;5.70;4.80;;;7.60;99.90;;;;;;4994844;28;20731;-84
2021/03/02 06:54:25;;;;;;;5.63;4.60;;;7.60;99.90;;;;;;5032107;28;20178;-82
2021/03/02 06:57:01;;;;;;;6.68;4.60;;;7.60;99.90;;;;;;5022970;28;20178;-81
2021/03/02 06:59:28;;;;;;;8.18;5.35;;;7.60;99.90;;;;;;5030867;28;20162;-82
2021/03/02 07:01:54;;;;;;;6.40;4.90;;;7.60;99.90;;;;;;5031526;28;20236;-81
2021/03/02 07:04:21;;;;;;;7.50;4.93;;;7.70;99.90;;;;;;5032135;28;20174;-81
2021/03/02 07:07:07;;;;;;;7.35;5.20;;;7.70;99.90;;;;;;5020257;28;20708;-84
2021/03/02 07:09:38;;;;;;;5.80;4.43;;;7.60;99.90;;;;;;5026234;28;20723;-85
2021/03/02 07:12:04;;;;;;;6.25;5.00;;;7.70;99.90;;;;;;5024368;28;20194;-81
2021/03/02 07:14:31;;;;;;;5.68;3.78;;;7.80;99.90;;;;;;5015164;28;20166;-82
2021/03/02 07:16:57;;;;;;;6.43;4.15;;;7.80;99.90;;;;;;5016357;28;20665;-82
2021/03/02 07:19:24;;;;;;;6.15;4.20;;;7.90;99.90;;;;;;4998424;28;20775;-82
2021/03/02 07:21:54;;;;;;;5.72;3.47;;;7.90;99.90;;;;;;4998817;28;20291;-82
2021/03/02 07:24:24;;;;;;;10.13;4.70;;;8.00;99.90;;;;;;5017009;28;20246;-79
2021/03/02 07:26:52;;;;;;;6.25;4.88;;;8.10;99.90;;;;;;5014395;28;20162;-77
2021/03/02 07:29:18;;;;;;;5.43;4.30;;;8.10;99.90;;;;;;5022397;28;20209;-78
2021/03/02 07:31:44;;;;;;;6.05;4.55;;;8.20;99.90;;;;;;5014062;28;20190;-77
2021/03/02 07:34:11;;;;;;;5.20;4.45;;;8.20;99.90;;;;;;5027985;28;20163;-78
2021/03/02 07:36:44;;;;;;;7.00;5.07;;;8.30;99.90;;;;;;5016007;28;20185;-79
2021/03/02 07:39:16;;;;;;;4.85;4.35;;;8.30;99.90;;;;;;5024511;28;20169;-79
2021/03/02 07:41:47;;;;;;;5.50;4.25;;;8.40;99.90;;;;;;5033642;28;20198;-79
2021/03/02 07:44:13;;;;;;;7.03;4.80;;;8.50;99.90;;;;;;5032222;28;20180;-79
2021/03/02 07:46:41;;;;;;;5.40;4.05;;;8.60;99.90;;;;;;5032442;28;20177;-79
2021/03/02 07:49:22;;;;;;;5.07;3.85;;;8.70;99.90;;;;;;5031790;28;20228;-77
2021/03/02 07:52:00;;;;;;;7.60;5.80;;;8.70;99.90;;;;;;5032101;28;20181;-78
2021/03/02 07:54:31;;;;;;;7.93;5.25;;;8.80;99.90;;;;;;5033125;28;20223;-78
2021/03/02 07:57:15;;;;;;;9.80;7.80;;;8.90;99.90;;;;;;5033717;28;20198;-79
2021/03/02 07:59:42;;;;;;;8.98;5.90;;;9.00;99.90;;;;;;5015793;28;20205;-78
2021/03/02 08:02:22;;;;;;;11.68;7.75;;;9.10;99.90;;;;;;5028440;28;20301;-78
2021/03/02 08:04:50;;;;;;;8.30;6.80;;;9.20;99.90;;;;;;5020162;28;20162;-77
2021/03/02 08:07:22;;;;;;;7.53;6.50;;;9.30;99.90;;;;;;5018905;28;20176;-77
2021/03/02 08:09:50;;;;;;;7.57;6.78;;;9.40;99.90;;;;;;5019951;28;20202;-78
2021/03/02 08:12:30;;;;;;;8.93;5.90;;;9.60;99.90;;;;;;5034369;28;20185;-80
2021/03/02 08:14:57;;;;;;;7.05;6.35;;;9.70;99.90;;;;;;5032112;28;20213;-79
2021/03/02 08:17:25;;;;;;;9.63;7.90;;;9.80;99.90;;;;;;5033002;28;20193;-81
2021/03/02 08:19:54;;;;;;;7.82;5.90;;;9.90;99.90;;;;;;5032604;28;20158;-79
2021/03/02 08:22:20;;;;;;;11.30;7.20;;;10.10;99.90;;;;;;5032517;28;20214;-79
2021/03/02 08:25:06;;;;;;;11.20;7.07;;;10.50;99.90;;;;;;5029162;28;20534;-79
2021/03/02 08:27:36;;;;;;;7.55;5.70;;;11.00;99.70;;;;;;5024618;28;21182;-79
2021/03/02 08:30:06;;;;;;;7.22;6.53;;;11.80;99.90;;;;;;5008682;28;20206;-81
2021/03/02 08:32:32;;;;;;;8.15;5.97;;;12.70;99.80;;;;;;5012600;28;20190;-79
2021/03/02 08:35:27;;;;;;;7.90;7.10;;;13.70;99.90;;;;;;5013888;28;20163;-80
2021/03/02 08:37:57;;;;;;;7.83;6.77;;;14.60;94.70;;;;;;5031788;28;20585;-79
2021/03/02 08:40:38;;;;;;;10.07;6.97;;;15.60;97.20;;;;;;5030554;28;20561;-78
2021/03/02 08:43:15;;;;;;;5.00;4.43;;;16.10;94.00;;;;;;5024723;28;21079;-78
2021/03/02 08:45:45;;;;;;;6.80;5.87;;;16.90;93.00;;;;;;5023438;28;20589;-78
2021/03/02 08:48:32;;;;;;;7.10;5.87;;;17.50;91.30;;;;;;5037643;28;20632;-79
2021/03/02 08:51:10;;;;;;;5.63;4.93;;;17.80;90.20;;;;;;4998641;28;20573;-78
2021/03/02 08:53:47;;;;;;;6.53;5.57;;;18.40;90.50;;;;;;4996816;28;20576;-80
2021/03/02 08:56:14;;;;;;;8.13;5.70;;;19.20;87.50;;;;;;5013276;28;20569;-79
2021/03/02 08:58:46;;;;;;;7.43;6.20;;;19.50;81.50;;;;;;5011638;28;20565;-78
2021/03/02 09:01:19;;;;;;;6.50;4.80;;;19.80;74.60;;;;;;4996735;28;20633;-80
2021/03/02 09:03:46;;;;;;;9.57;5.00;;;20.10;74.40;;;;;;5011940;28;20570;-80
2021/03/02 09:06:12;;;;;;;8.50;6.30;;;20.40;77.60;;;;;;5011500;28;20928;-78
2021/03/02 09:08:55;;;;;;;5.00;4.60;;;20.60;68.10;;;;;;4994283;28;20970;-78
2021/03/02 09:11:42;;;;;;;8.67;6.03;;;20.60;69.20;;;;;;5012108;28;20589;-79
2021/03/02 09:14:18;;;;;;;5.60;4.30;;;20.60;64.80;;;;;;4978182;28;20585;-80
2021/03/02 09:16:56;;;;;;;5.60;5.10;;;21.00;71.00;;;;;;5012249;28;20903;-80
2021/03/02 09:19:27;;;;;;;6.13;3.63;;;21.10;64.00;;;;;;5029273;28;20841;-80
2021/03/02 09:22:04;;;;;;;7.30;5.60;;;21.40;68.30;;;;;;4994684;28;20605;-80
2021/03/02 09:24:36;;;;;;;4.73;3.80;;;21.80;65.10;;;;;;4994703;28;20569;-80
2021/03/02 09:27:04;;;;;;;4.90;4.40;;;22.10;67.10;;;;;;4994370;28;20558;-79
2021/03/02 09:29:43;;;;;;;4.93;4.33;;;22.50;64.50;;;;;;5010604;28;20613;-80
2021/03/02 09:32:11;;;;;;;6.13;5.53;;;22.60;61.80;;;;;;4994421;28;20632;-79
2021/03/02 09:34:43;;;;;;;5.13;4.53;;;22.40;60.00;;;;;;5010637;28;20573;-80
2021/03/02 09:37:19;;;;;;;6.00;4.93;;;22.40;58.30;;;;;;5016682;28;20908;-80
2021/03/02 09:40:11;;;;;;;4.90;4.30;;;22.20;57.70;;;;;;5010564;28;20954;-80
2021/03/02 09:42:40;;;;;;;5.23;4.73;;;22.50;58.50;;;;;;4993701;28;20593;-79
2021/03/02 09:45:19;;;;;;;5.27;4.77;;;22.80;59.70;;;;;;5016466;28;20592;-77
2021/03/02 09:47:47;;;;;;;5.57;5.07;;;23.00;59.20;;;;;;5013860;28;20564;-78
2021/03/02 09:50:17;;;;;;;8.00;6.07;;;23.40;59.30;;;;;;5030957;28;21171;-77
2021/03/02 09:52:55;;;;;;;5.17;4.67;;;23.60;55.10;;;;;;5013698;28;20596;-80
2021/03/02 09:55:26;;;;;;;7.47;5.40;;;23.70;56.70;;;;;;5014642;28;20569;-81
2021/03/02 09:58:07;;;;;;;5.77;5.17;;;23.40;54.20;;;;;;5031301;28;20569;-80
2021/03/02 10:00:41;;;;;;;7.07;5.47;;;23.20;54.10;;;;;;5013573;28;20616;-80
2021/03/02 10:03:14;;;;;;;6.67;5.97;;;23.20;54.20;;;;;;5014058;28;20694;-79
2021/03/02 10:05:42;;;;;;;7.17;5.77;;;23.10;53.90;;;;;;5014285;28;21139;-80
2021/03/02 10:08:17;;;;;;;8.13;5.83;;;22.90;53.80;;;;;;5013653;28;20610;-79
2021/03/02 10:10:43;;;;;;;6.47;5.57;;;22.50;50.20;;;;;;5030456;28;20564;-80
2021/03/02 10:13:09;;;;;;;6.33;5.67;;;22.50;52.60;;;;;;5031576;28;20700;-80
2021/03/02 10:15:36;;;;;;;6.73;5.50;;;22.20;52.30;;;;;;5031654;28;21150;-80
2021/03/02 10:18:21;;;;;;;6.60;6.00;;;22.00;52.30;;;;;;5031088;28;20647;-80
2021/03/02 10:21:07;;;;;;;5.93;5.33;;;21.90;52.00;;;;;;5030627;28;20596;-79
2021/03/02 10:23:40;;;;;;;5.80;5.03;;;21.70;52.40;;;;;;5013900;28;20576;-80
2021/03/02 10:26:06;;;;;;;7.17;6.50;;;21.70;52.60;;;;;;5030195;28;20567;-80
2021/03/02 10:28:32;;;;;;;5.90;4.83;;;21.70;52.80;;;;;;5031174;28;20600;-77
2021/03/02 10:30:59;;;;;;;6.90;6.10;;;21.90;53.30;;;;;;5030212;28;20174;-79
2021/03/02 10:33:26;;;;;;;7.47;5.50;;;22.00;53.00;;;;;;5014210;28;20577;-80
2021/03/02 10:35:55;;;;;;;15.17;6.43;;;21.70;52.60;;;;;;5026671;28;21156;-80
2021/03/02 10:38:22;;;;;;;10.93;7.23;;;21.60;52.50;;;;;;5030229;28;20573;-79
2021/03/02 10:40:48;;;;;;;6.13;5.63;;;21.30;51.10;;;;;;5016295;28;20655;-80
2021/03/02 10:43:19;;;;;;;5.93;4.80;;;20.70;51.00;;;;;;5013184;28;20585;-81
2021/03/02 10:45:45;;;;;;;6.50;5.90;;;20.60;52.60;;;;;;5021976;28;20584;-81
2021/03/02 10:48:16;;;;;;;8.33;5.90;;;20.80;53.20;;;;;;5013253;28;20227;-81
2021/03/02 10:50:41;;;;;;;5.70;5.00;;;20.70;52.60;;;;;;5030861;28;20579;-80
2021/03/02 10:53:07;;;;;;;8.27;7.13;;;20.90;53.90;;;;;;4997647;28;20588;-81
2021/03/02 10:55:33;;;;;;;6.60;5.63;;;21.10;53.10;;;;;;4998507;28;20243;-81
2021/03/02 10:57:59;;;;;;;7.47;6.77;;;21.00;52.50;;;;;;5000209;28;20174;-81
2021/03/02 11:00:25;;;;;;;7.30;6.23;;;20.80;51.40;;;;;;5034843;28;20603;-81
2021/03/02 11:02:51;;;;;;;12.13;7.53;;;20.60;51.20;;;;;;5033731;28;20239;-80
2021/03/02 11:05:17;;;;;;;9.10;5.67;;;20.50;51.70;;;;;;5033246;28;20600;-80
2021/03/02 11:07:43;;;;;;;6.77;5.70;;;20.40;52.10;;;;;;5016679;28;20216;-81
2021/03/02 11:10:09;;;;;;;6.63;5.53;;;20.40;52.20;;;;;;5034145;28;20959;-80
2021/03/02 11:12:35;;;;;;;6.70;5.73;;;20.60;53.10;;;;;;5016279;28;20186;-80
2021/03/02 11:15:01;;;;;;;9.00;7.63;;;20.70;52.60;;;;;;5016385;28;20576;-79
2021/03/02 11:17:27;;;;;;;7.07;6.30;;;20.90;52.40;;;;;;5032733;28;20165;-79
2021/03/02 11:19:53;;;;;;;9.90;6.87;;;21.00;52.40;;;;;;4999910;28;20182;-79
2021/03/02 11:22:19;;;;;;;7.53;6.30;;;21.10;52.70;;;;;;5012892;28;20623;-77
2021/03/02 11:24:44;;;;;;;8.20;7.10;;;21.00;52.00;;;;;;4990974;28;20600;-79
2021/03/02 11:27:10;;;;;;;5.53;4.70;;;21.10;52.20;;;;;;5013467;28;20174;-78
2021/03/02 11:29:36;;;;;;;8.37;6.63;;;21.30;52.80;;;;;;5001233;28;20253;-79
2021/03/02 11:32:04;;;;;;;5.50;5.00;;;21.50;53.20;;;;;;4996096;28;20569;-79
2021/03/02 11:34:30;;;;;;;6.93;6.13;;;21.80;53.70;;;;;;4996193;28;20615;-79
2021/03/02 11:36:55;;;;;;;8.13;7.20;;;22.20;51.60;;;;;;5015881;28;21121;-80
2021/03/02 11:39:21;;;;;;;10.87;6.47;;;22.00;50.30;;;;;;5013441;28;20171;-79
2021/03/02 11:41:48;;;;;;;7.83;7.03;;;22.00;51.30;;;;;;5013406;28;20190;-79
2021/03/02 11:44:14;;;;;;;9.27;6.90;;;21.80;50.80;;;;;;4996309;28;20577;-79
2021/03/02 11:46:39;;;;;;;8.50;6.23;;;21.80;51.10;;;;;;4998480;28;20942;-79
2021/03/02 11:49:05;;;;;;;6.00;5.40;;;21.70;50.90;;;;;;4997406;28;20205;-79
2021/03/02 11:51:31;;;;;;;10.60;9.00;;;21.70;51.60;;;;;;4996145;28;20593;-78
2021/03/02 11:53:57;;;;;;;8.83;7.60;;;21.70;50.70;;;;;;4991273;28;20173;-79
2021/03/02 11:56:22;;;;;;;9.30;7.83;;;21.80;50.80;;;;;;4998025;28;20185;-78
2021/03/02 11:58:49;;;;;;;12.55;9.98;;;21.80;50.40;;;;;;4978767;28;20716;-77
2021/03/02 12:01:14;;;;;;;10.13;7.60;;;21.70;49.60;;;;;;4995530;28;20198;-78
2021/03/02 12:03:40;;;;;;;10.10;5.70;;;21.80;50.00;;;;;;4980146;28;20581;-80
2021/03/02 12:06:06;;;;;;;6.40;5.80;;;21.80;50.40;;;;;;4980410;28;20945;-79
2021/03/02 12:08:34;;;;;;;7.63;5.37;;;21.80;50.40;;;;;;4995668;28;20632;-78
2021/03/02 12:11:00;;;;;;;8.37;6.57;;;21.70;50.40;;;;;;4995652;28;20570;-79
2021/03/02 12:13:26;;;;;;;6.90;6.03;;;21.80;51.00;;;;;;5016172;28;20561;-78
2021/03/02 12:16:01;;;;;;;5.57;5.07;;;21.90;51.20;;;;;;5026474;28;20604;-82
2021/03/02 12:18:27;;;;;;;7.00;6.30;;;21.90;50.90;;;;;;5000771;28;20613;-81
2021/03/02 12:20:53;;;;;;;7.30;6.60;;;22.10;51.20;;;;;;5025880;28;20596;-81
2021/03/02 12:23:20;;;;;;;8.57;6.60;;;22.10;51.00;;;;;;5021869;28;20189;-80
2021/03/02 12:25:46;;;;;;;7.30;6.13;;;21.90;49.60;;;;;;5025787;28;20645;-82
2021/03/02 12:28:12;;;;;;;5.40;4.27;;;21.80;49.80;;;;;;5017306;28;20682;-80
2021/03/02 12:30:40;;;;;;;6.63;6.03;;;21.80;50.10;;;;;;4992144;28;20175;-80
2021/03/02 12:33:06;;;;;;;9.50;6.83;;;21.70;50.50;;;;;;5005021;28;20305;-81
2021/03/02 12:35:32;;;;;;;7.30;6.33;;;21.70;50.10;;;;;;5014554;28;20589;-80
2021/03/02 12:38:01;;;;;;;7.03;5.97;;;21.60;50.30;;;;;;5015969;28;20609;-81
2021/03/02 12:40:27;;;;;;;8.47;7.07;;;21.70;50.80;;;;;;4993105;28;21087;-82
2021/03/02 12:42:53;;;;;;;8.40;7.37;;;21.80;50.40;;;;;;4996045;28;20621;-80
2021/03/02 12:45:19;;;;;;;7.07;6.30;;;21.80;50.30;;;;;;5038858;22;20711;-85
2021/03/02 12:47:45;;;;;;;10.73;6.50;;;21.80;50.20;;;;;;5025522;28;20200;-84
2021/03/02 12:50:11;;;;;;;7.50;6.07;;;21.60;49.60;;;;;;5050062;28;20264;-85
2021/03/02 12:52:37;;;;;;;8.80;7.47;;;21.40;48.70;;;;;;5003470;28;20684;-83
2021/03/02 12:55:04;;;;;;;7.53;6.60;;;21.10;48.30;;;;;;5036282;28;20689;-83
2021/03/02 12:57:33;;;;;;;7.80;6.50;;;20.70;48.30;;;;;;5003075;28;20580;-83
2021/03/02 12:59:59;;;;;;;10.53;6.57;;;20.50;48.40;;;;;;4976902;28;21038;-83
2021/03/02 13:02:25;;;;;;;8.77;6.40;;;20.20;48.60;;;;;;5013171;28;20588;-85
2021/03/02 13:04:53;;;;;;;10.52;8.57;;;19.90;48.70;;;;;;5023482;28;20741;-85